sensor_id;sensor_type;location;lat;lon;timestamp;pressure;altitude;pressure_sealevel;temperature;humidity
84696;BME280;74913;40.204;44.532;2024-03-08T00:00:08;87652.81;;;5.09;57.71
84696;BME280;74913;40.204;44.532;2024-03-08T00:02:38;87647.50;;;5.09;57.14
84696;BME280;74913;40.204;44.532;2024-03-08T00:05:04;87655.94;;;5.18;58.01
84696;BME280;74913;40.204;44.532;2024-03-08T00:07:30;87649.84;;;5.24;57.45
84696;BME280;74913;40.204;44.532;2024-03-08T00:09:56;87647.88;;;5.30;56.85
84696;BME280;74913;40.204;44.532;2024-03-08T00:12:31;87638.69;;;5.25;56.82
84696;BME280;74913;40.204;44.532;2024-03-08T00:14:57;87651.94;;;5.42;56.54
84696;BME280;74913;40.204;44.532;2024-03-08T00:17:22;87647.84;;;5.41;56.97
84696;BME280;74913;40.204;44.532;2024-03-08T00:19:49;87634.56;;;5.30;56.25
84696;BME280;74913;40.204;44.532;2024-03-08T00:22:17;87647.09;;;5.40;56.66
84696;BME280;74913;40.204;44.532;2024-03-08T00:24:43;87646.88;;;5.38;56.39
84696;BME280;74913;40.204;44.532;2024-03-08T00:27:09;87644.25;;;5.33;55.99
84696;BME280;74913;40.204;44.532;2024-03-08T00:29:36;87644.97;;;5.33;55.92
84696;BME280;74913;40.204;44.532;2024-03-08T00:32:04;87637.00;;;5.28;56.31
84696;BME280;74913;40.204;44.532;2024-03-08T00:34:30;87643.50;;;5.32;56.22
84696;BME280;74913;40.204;44.532;2024-03-08T00:36:57;87652.72;;;5.31;56.39
84696;BME280;74913;40.204;44.532;2024-03-08T00:39:23;87648.63;;;5.30;56.17
84696;BME280;74913;40.204;44.532;2024-03-08T00:41:49;87644.50;;;5.29;56.21
84696;BME280;74913;40.204;44.532;2024-03-08T00:44:15;87649.38;;;5.25;56.51
84696;BME280;74913;40.204;44.532;2024-03-08T00:46:41;87649.38;;;5.19;55.96
84696;BME280;74913;40.204;44.532;2024-03-08T00:49:08;87648.00;;;5.07;56.08
84696;BME280;74913;40.204;44.532;2024-03-08T00:51:33;87655.78;;;5.00;56.19
84696;BME280;74913;40.204;44.532;2024-03-08T00:53:59;87657.72;;;4.94;56.22
84696;BME280;74913;40.204;44.532;2024-03-08T00:56:24;87658.72;;;4.91;55.92
84696;BME280;74913;40.204;44.532;2024-03-08T00:58:50;87636.72;;;4.74;56.15
84696;BME280;74913;40.204;44.532;2024-03-08T01:01:18;87659.19;;;4.95;56.09
84696;BME280;74913;40.204;44.532;2024-03-08T01:03:44;87657.25;;;5.01;55.72
84696;BME280;74913;40.204;44.532;2024-03-08T01:06:10;87664.94;;;5.10;55.83
84696;BME280;74913;40.204;44.532;2024-03-08T01:08:36;87671.75;;;5.11;56.11
84696;BME280;74913;40.204;44.532;2024-03-08T01:11:06;87664.44;;;5.11;55.29
84696;BME280;74913;40.204;44.532;2024-03-08T01:13:32;87661.81;;;5.06;55.24
84696;BME280;74913;40.204;44.532;2024-03-08T01:15:57;87674.66;;;5.02;55.15
84696;BME280;74913;40.204;44.532;2024-03-08T01:18:23;87675.41;;;4.97;55.31
84696;BME280;74913;40.204;44.532;2024-03-08T01:20:49;87674.94;;;4.93;54.99
84696;BME280;74913;40.204;44.532;2024-03-08T01:23:14;87681.50;;;4.92;55.40
84696;BME280;74913;40.204;44.532;2024-03-08T01:25:40;87681.72;;;4.94;55.53
84696;BME280;74913;40.204;44.532;2024-03-08T01:28:07;87681.97;;;4.96;54.88
84696;BME280;74913;40.204;44.532;2024-03-08T01:30:33;87687.31;;;4.96;55.20
84696;BME280;74913;40.204;44.532;2024-03-08T01:33:00;87681.47;;;4.97;54.84
84696;BME280;74913;40.204;44.532;2024-03-08T01:35:26;87694.56;;;5.01;54.98
84696;BME280;74913;40.204;44.532;2024-03-08T01:37:53;87692.13;;;5.03;55.31
84696;BME280;74913;40.204;44.532;2024-03-08T01:40:18;87679.53;;;4.98;54.81
84696;BME280;74913;40.204;44.532;2024-03-08T01:42:44;87694.78;;;5.08;54.31
84696;BME280;74913;40.204;44.532;2024-03-08T01:45:10;87690.16;;;5.09;54.63
84696;BME280;74913;40.204;44.532;2024-03-08T01:47:37;87690.41;;;5.05;54.48
84696;BME280;74913;40.204;44.532;2024-03-08T01:50:03;87696.44;;;5.11;54.25
84696;BME280;74913;40.204;44.532;2024-03-08T01:52:32;87695.97;;;5.13;54.28
84696;BME280;74913;40.204;44.532;2024-03-08T01:55:03;87661.41;;;4.91;53.70
84696;BME280;74913;40.204;44.532;2024-03-08T01:57:32;87699.84;;;5.12;53.57
84696;BME280;74913;40.204;44.532;2024-03-08T02:00:08;87702.56;;;5.01;53.92
84696;BME280;74913;40.204;44.532;2024-03-08T02:02:37;87702.50;;;5.06;53.41
84696;BME280;74913;40.204;44.532;2024-03-08T02:05:03;87704.97;;;4.99;53.63
84696;BME280;74913;40.204;44.532;2024-03-08T02:07:30;87709.31;;;5.02;53.94
84696;BME280;74913;40.204;44.532;2024-03-08T02:09:56;87699.41;;;4.97;53.92
84696;BME280;74913;40.204;44.532;2024-03-08T02:12:22;87705.22;;;5.01;53.84
84696;BME280;74913;40.204;44.532;2024-03-08T02:14:48;87707.88;;;5.01;54.12
84696;BME280;74913;40.204;44.532;2024-03-08T02:17:14;87720.72;;;4.97;53.96
84696;BME280;74913;40.204;44.532;2024-03-08T02:19:39;87714.94;;;4.93;53.92
84696;BME280;74913;40.204;44.532;2024-03-08T02:22:05;87721.00;;;4.93;54.04
84696;BME280;74913;40.204;44.532;2024-03-08T02:24:34;87726.56;;;4.90;53.74
84696;BME280;74913;40.204;44.532;2024-03-08T02:27:00;87728.03;;;4.91;54.23
84696;BME280;74913;40.204;44.532;2024-03-08T02:29:26;87724.13;;;4.92;53.79
84696;BME280;74913;40.204;44.532;2024-03-08T02:31:52;87724.88;;;4.92;54.00
84696;BME280;74913;40.204;44.532;2024-03-08T02:34:17;87722.94;;;4.87;53.93
84696;BME280;74913;40.204;44.532;2024-03-08T02:36:43;87721.25;;;4.79;53.92
84696;BME280;74913;40.204;44.532;2024-03-08T02:39:09;87740.16;;;4.81;53.91
84696;BME280;74913;40.204;44.532;2024-03-08T02:41:36;87740.41;;;4.77;54.40
84696;BME280;74913;40.204;44.532;2024-03-08T02:44:02;87737.50;;;4.75;54.14
84696;BME280;74913;40.204;44.532;2024-03-08T02:46:29;87738.22;;;4.76;54.23
84696;BME280;74913;40.204;44.532;2024-03-08T02:48:55;87742.84;;;4.70;54.29
84696;BME280;74913;40.204;44.532;2024-03-08T02:51:21;87744.78;;;4.64;54.68
84696;BME280;74913;40.204;44.532;2024-03-08T02:53:46;87745.25;;;4.57;54.51
84696;BME280;74913;40.204;44.532;2024-03-08T02:56:14;87752.56;;;4.50;54.86
84696;BME280;74913;40.204;44.532;2024-03-08T02:58:42;87752.06;;;4.46;54.96
84696;BME280;74913;40.204;44.532;2024-03-08T03:01:08;87753.97;;;4.46;55.00
84696;BME280;74913;40.204;44.532;2024-03-08T03:03:35;87747.69;;;4.43;54.97
84696;BME280;74913;40.204;44.532;2024-03-08T03:06:01;87762.72;;;4.52;55.08
84696;BME280;74913;40.204;44.532;2024-03-08T03:08:27;87750.34;;;4.54;54.94
84696;BME280;74913;40.204;44.532;2024-03-08T03:10:52;87749.88;;;4.50;54.94
84696;BME280;74913;40.204;44.532;2024-03-08T03:13:18;87753.25;;;4.57;55.00
84696;BME280;74913;40.204;44.532;2024-03-08T03:15:46;87743.09;;;4.49;55.19
84696;BME280;74913;40.204;44.532;2024-03-08T03:18:12;87748.16;;;4.59;55.38
84696;BME280;74913;40.204;44.532;2024-03-08T03:20:37;87749.41;;;4.58;54.52
84696;BME280;74913;40.204;44.532;2024-03-08T03:23:10;87743.56;;;4.53;54.02
84696;BME280;74913;40.204;44.532;2024-03-08T03:25:39;87738.75;;;4.46;54.57
84696;BME280;74913;40.204;44.532;2024-03-08T03:28:06;87743.56;;;4.53;54.65
84696;BME280;74913;40.204;44.532;2024-03-08T03:30:33;87745.75;;;4.49;54.12
84696;BME280;74913;40.204;44.532;2024-03-08T03:33:00;87739.69;;;4.43;53.87
84696;BME280;74913;40.204;44.532;2024-03-08T03:35:29;87743.34;;;4.40;53.69
84696;BME280;74913;40.204;44.532;2024-03-08T03:37:55;87749.41;;;4.35;53.67
84696;BME280;74913;40.204;44.532;2024-03-08T03:40:33;87749.88;;;4.17;53.33
84696;BME280;74913;40.204;44.532;2024-03-08T03:42:59;87760.28;;;4.04;53.02
84696;BME280;74913;40.204;44.532;2024-03-08T03:45:24;87757.88;;;4.01;52.82
84696;BME280;74913;40.204;44.532;2024-03-08T03:47:50;87749.38;;;3.91;53.29
84696;BME280;74913;40.204;44.532;2024-03-08T03:50:17;87754.69;;;3.91;52.95
84696;BME280;74913;40.204;44.532;2024-03-08T03:52:47;87761.00;;;3.88;53.23
84696;BME280;74913;40.204;44.532;2024-03-08T03:55:13;87752.28;;;3.87;52.77
84696;BME280;74913;40.204;44.532;2024-03-08T03:57:39;87746.47;;;3.89;52.89
84696;BME280;74913;40.204;44.532;2024-03-08T04:00:06;87756.63;;;3.96;52.92
84696;BME280;74913;40.204;44.532;2024-03-08T04:02:37;87762.22;;;3.98;52.76
84696;BME280;74913;40.204;44.532;2024-03-08T04:05:08;87740.41;;;3.88;53.43
84696;BME280;74913;40.204;44.532;2024-03-08T04:07:34;87766.09;;;4.08;52.99
84696;BME280;74913;40.204;44.532;2024-03-08T04:10:02;87762.44;;;4.11;52.52
84696;BME280;74913;40.204;44.532;2024-03-08T04:12:28;87771.19;;;4.17;52.21
84696;BME280;74913;40.204;44.532;2024-03-08T04:14:55;87771.19;;;4.17;51.91
84696;BME280;74913;40.204;44.532;2024-03-08T04:17:22;87770.44;;;4.33;51.70
84696;BME280;74913;40.204;44.532;2024-03-08T04:19:49;87771.66;;;4.54;50.99
84696;BME280;74913;40.204;44.532;2024-03-08T04:22:15;87767.50;;;4.92;50.09
84696;BME280;74913;40.204;44.532;2024-03-08T04:24:42;87741.53;;;5.04;49.11
84696;BME280;74913;40.204;44.532;2024-03-08T04:27:07;87765.66;;;5.45;48.56
84696;BME280;74913;40.204;44.532;2024-03-08T04:29:33;87763.84;;;5.69;48.03
84696;BME280;74913;40.204;44.532;2024-03-08T04:32:01;87767.91;;;5.93;47.06
84696;BME280;74913;40.204;44.532;2024-03-08T04:34:29;87770.00;;;6.11;47.32
84696;BME280;74913;40.204;44.532;2024-03-08T04:36:57;87744.94;;;6.14;46.57
84696;BME280;74913;40.204;44.532;2024-03-08T04:39:23;87772.34;;;6.20;46.52
84696;BME280;74913;40.204;44.532;2024-03-08T04:41:49;87766.38;;;6.43;46.22
84696;BME280;74913;40.204;44.532;2024-03-08T04:44:15;87771.53;;;6.71;44.92
84696;BME280;74913;40.204;44.532;2024-03-08T04:46:40;87778.88;;;6.89;45.00
84696;BME280;74913;40.204;44.532;2024-03-08T04:49:06;87774.88;;;7.01;44.97
84696;BME280;74913;40.204;44.532;2024-03-08T04:51:33;87776.72;;;7.12;44.43
84696;BME280;74913;40.204;44.532;2024-03-08T04:53:59;87774.69;;;7.24;44.31
84696;BME280;74913;40.204;44.532;2024-03-08T04:56:25;87776.94;;;7.44;43.82
84696;BME280;74913;40.204;44.532;2024-03-08T04:58:51;87777.25;;;7.59;43.14
84696;BME280;74913;40.204;44.532;2024-03-08T05:01:16;87780.56;;;7.65;42.98
84696;BME280;74913;40.204;44.532;2024-03-08T05:03:42;87780.66;;;7.78;42.99
84696;BME280;74913;40.204;44.532;2024-03-08T05:06:09;87783.00;;;7.87;42.91
84696;BME280;74913;40.204;44.532;2024-03-08T05:08:34;87778.31;;;7.93;43.24
84696;BME280;74913;40.204;44.532;2024-03-08T05:11:00;87772.78;;;8.04;42.80
84696;BME280;74913;40.204;44.532;2024-03-08T05:13:30;87774.97;;;8.24;42.88
84696;BME280;74913;40.204;44.532;2024-03-08T05:15:56;87773.25;;;8.46;42.83
84696;BME280;74913;40.204;44.532;2024-03-08T05:18:24;87774.75;;;8.60;43.05
84696;BME280;74913;40.204;44.532;2024-03-08T05:20:50;87771.72;;;8.82;42.52
84696;BME280;74913;40.204;44.532;2024-03-08T05:23:17;87772.16;;;8.86;41.59
84696;BME280;74913;40.204;44.532;2024-03-08T05:25:45;87769.84;;;8.77;42.55
84696;BME280;74913;40.204;44.532;2024-03-08T05:28:12;87766.47;;;8.76;42.87
84696;BME280;74913;40.204;44.532;2024-03-08T05:30:38;87783.50;;;8.79;42.67
84696;BME280;74913;40.204;44.532;2024-03-08T05:33:04;87774.66;;;8.84;42.41
84696;BME280;74913;40.204;44.532;2024-03-08T05:35:30;87780.25;;;8.99;42.34
84696;BME280;74913;40.204;44.532;2024-03-08T05:37:56;87773.16;;;9.15;42.62
84696;BME280;74913;40.204;44.532;2024-03-08T05:40:23;87776.81;;;9.30;42.53
84696;BME280;74913;40.204;44.532;2024-03-08T05:42:49;87776.63;;;9.41;42.61
84696;BME280;74913;40.204;44.532;2024-03-08T05:45:15;87764.03;;;9.49;42.98
84696;BME280;74913;40.204;44.532;2024-03-08T05:47:43;87775.78;;;9.59;42.51
84696;BME280;74913;40.204;44.532;2024-03-08T05:50:09;87772.09;;;9.62;42.81
84696;BME280;74913;40.204;44.532;2024-03-08T05:52:36;87770.13;;;9.63;42.81
84696;BME280;74913;40.204;44.532;2024-03-08T05:55:04;87778.09;;;9.68;42.96
84696;BME280;74913;40.204;44.532;2024-03-08T05:57:32;87769.41;;;9.62;43.01
84696;BME280;74913;40.204;44.532;2024-03-08T05:59:58;87785.94;;;9.66;43.73
84696;BME280;74913;40.204;44.532;2024-03-08T06:02:24;87788.63;;;9.66;43.40
84696;BME280;74913;40.204;44.532;2024-03-08T06:04:50;87795.88;;;9.72;43.23
84696;BME280;74913;40.204;44.532;2024-03-08T06:07:15;87783.25;;;9.66;44.07
84696;BME280;74913;40.204;44.532;2024-03-08T06:09:43;87779.31;;;9.54;43.74
84696;BME280;74913;40.204;44.532;2024-03-08T06:12:11;87787.59;;;9.56;43.90
84696;BME280;74913;40.204;44.532;2024-03-08T06:14:37;87794.09;;;9.61;44.34
84696;BME280;74913;40.204;44.532;2024-03-08T06:17:03;87789.03;;;9.57;44.46
84696;BME280;74913;40.204;44.532;2024-03-08T06:19:32;87798.34;;;9.56;43.62
84696;BME280;74913;40.204;44.532;2024-03-08T06:21:58;87801.72;;;9.57;43.94
84696;BME280;74913;40.204;44.532;2024-03-08T06:24:23;87800.09;;;9.54;44.32
84696;BME280;74913;40.204;44.532;2024-03-08T06:26:49;87796.47;;;9.51;43.73
84696;BME280;74913;40.204;44.532;2024-03-08T06:29:15;87792.13;;;9.48;43.66
84696;BME280;74913;40.204;44.532;2024-03-08T06:31:41;87788.81;;;9.42;43.54
84696;BME280;74913;40.204;44.532;2024-03-08T06:34:07;87798.50;;;9.45;44.23
84696;BME280;74913;40.204;44.532;2024-03-08T06:36:33;87791.72;;;9.44;43.99
84696;BME280;74913;40.204;44.532;2024-03-08T06:38:59;87794.59;;;9.46;43.89
84696;BME280;74913;40.204;44.532;2024-03-08T06:41:25;87795.63;;;9.43;43.96
84696;BME280;74913;40.204;44.532;2024-03-08T06:43:50;87793.16;;;9.45;43.57
84696;BME280;74913;40.204;44.532;2024-03-08T06:46:23;87795.84;;;9.45;43.95
84696;BME280;74913;40.204;44.532;2024-03-08T06:48:48;87804.22;;;9.42;43.62
84696;BME280;74913;40.204;44.532;2024-03-08T06:51:17;87811.91;;;9.32;43.54
84696;BME280;74913;40.204;44.532;2024-03-08T06:53:43;87808.16;;;9.22;43.48
84696;BME280;74913;40.204;44.532;2024-03-08T06:56:09;87804.88;;;9.16;43.77
84696;BME280;74913;40.204;44.532;2024-03-08T06:58:35;87805.97;;;9.08;44.21
84696;BME280;74913;40.204;44.532;2024-03-08T07:01:00;87794.91;;;8.98;43.99
84696;BME280;74913;40.204;44.532;2024-03-08T07:03:29;87802.44;;;8.99;45.13
84696;BME280;74913;40.204;44.532;2024-03-08T07:05:56;87814.69;;;8.95;44.92
84696;BME280;74913;40.204;44.532;2024-03-08T07:08:23;87813.03;;;8.92;45.58
84696;BME280;74913;40.204;44.532;2024-03-08T07:10:49;87814.50;;;8.93;45.37
84696;BME280;74913;40.204;44.532;2024-03-08T07:13:15;87820.72;;;9.01;45.37
84696;BME280;74913;40.204;44.532;2024-03-08T07:15:43;87803.06;;;9.06;45.82
84696;BME280;74913;40.204;44.532;2024-03-08T07:18:09;87813.84;;;9.19;45.12
84696;BME280;74913;40.204;44.532;2024-03-08T07:20:39;87815.00;;;9.23;45.36
84696;BME280;74913;40.204;44.532;2024-03-08T07:23:05;87815.13;;;9.31;45.10
84696;BME280;74913;40.204;44.532;2024-03-08T07:25:32;87814.72;;;9.40;44.82
84696;BME280;74913;40.204;44.532;2024-03-08T07:27:58;87812.47;;;9.44;44.85
84696;BME280;74913;40.204;44.532;2024-03-08T07:30:25;87802.03;;;9.40;43.92
84696;BME280;74913;40.204;44.532;2024-03-08T07:33:10;87812.13;;;9.34;43.90
84696;BME280;74913;40.204;44.532;2024-03-08T07:35:39;87807.59;;;9.29;44.46
84696;BME280;74913;40.204;44.532;2024-03-08T07:38:08;87802.81;;;9.22;44.25
84696;BME280;74913;40.204;44.532;2024-03-08T07:40:36;87814.59;;;9.32;44.73
84696;BME280;74913;40.204;44.532;2024-03-08T07:43:04;87816.25;;;9.35;44.76
84696;BME280;74913;40.204;44.532;2024-03-08T07:45:30;87814.63;;;9.45;45.25
84696;BME280;74913;40.204;44.532;2024-03-08T07:47:56;87821.69;;;9.61;45.04
84696;BME280;74913;40.204;44.532;2024-03-08T07:50:22;87809.88;;;9.64;44.84
84696;BME280;74913;40.204;44.532;2024-03-08T07:52:48;87809.28;;;9.72;45.89
84696;BME280;74913;40.204;44.532;2024-03-08T07:55:14;87805.06;;;9.76;45.57
84696;BME280;74913;40.204;44.532;2024-03-08T07:57:40;87807.66;;;9.82;45.20
84696;BME280;74913;40.204;44.532;2024-03-08T08:00:06;87802.69;;;9.86;45.00
84696;BME280;74913;40.204;44.532;2024-03-08T08:02:36;87803.31;;;9.92;44.99
84696;BME280;74913;40.204;44.532;2024-03-08T08:05:02;87801.44;;;10.00;43.91
84696;BME280;74913;40.204;44.532;2024-03-08T08:07:29;87798.13;;;9.94;43.35
84696;BME280;74913;40.204;44.532;2024-03-08T08:09:54;87804.13;;;10.00;42.26
84696;BME280;74913;40.204;44.532;2024-03-08T08:12:20;87802.25;;;9.95;42.07
84696;BME280;74913;40.204;44.532;2024-03-08T08:14:46;87801.66;;;9.89;42.52
84696;BME280;74913;40.204;44.532;2024-03-08T08:17:12;87805.56;;;9.88;41.17
84696;BME280;74913;40.204;44.532;2024-03-08T08:19:37;87801.94;;;9.85;40.56
84696;BME280;74913;40.204;44.532;2024-03-08T08:22:08;87796.47;;;9.78;40.61
84696;BME280;74913;40.204;44.532;2024-03-08T08:24:34;87791.53;;;9.82;40.21
84696;BME280;74913;40.204;44.532;2024-03-08T08:27:02;87796.56;;;9.85;39.37
84696;BME280;74913;40.204;44.532;2024-03-08T08:29:28;87792.97;;;9.83;39.70
84696;BME280;74913;40.204;44.532;2024-03-08T08:31:54;87795.44;;;9.81;40.24
84696;BME280;74913;40.204;44.532;2024-03-08T08:34:19;87803.09;;;9.90;39.48
84696;BME280;74913;40.204;44.532;2024-03-08T08:36:49;87800.63;;;9.92;39.80
84696;BME280;74913;40.204;44.532;2024-03-08T08:39:14;87802.69;;;9.86;39.16
84696;BME280;74913;40.204;44.532;2024-03-08T08:41:42;87797.31;;;9.86;39.33
84696;BME280;74913;40.204;44.532;2024-03-08T08:44:10;87799.78;;;9.84;39.07
84696;BME280;74913;40.204;44.532;2024-03-08T08:46:38;87795.84;;;9.85;38.89
84696;BME280;74913;40.204;44.532;2024-03-08T08:49:06;87799.47;;;9.87;38.44
84696;BME280;74913;40.204;44.532;2024-03-08T08:51:38;87796.28;;;9.89;39.30
84696;BME280;74913;40.204;44.532;2024-03-08T08:54:04;87789.03;;;9.84;37.98
84696;BME280;74913;40.204;44.532;2024-03-08T08:56:31;87786.16;;;9.68;38.89
84696;BME280;74913;40.204;44.532;2024-03-08T08:58:57;87790.25;;;9.69;39.10
84696;BME280;74913;40.204;44.532;2024-03-08T09:01:23;87785.72;;;9.78;38.20
84696;BME280;74913;40.204;44.532;2024-03-08T09:03:49;87782.13;;;9.88;37.80
84696;BME280;74913;40.204;44.532;2024-03-08T09:06:16;87776.31;;;9.97;37.56
84696;BME280;74913;40.204;44.532;2024-03-08T09:08:42;87779.72;;;10.11;37.02
84696;BME280;74913;40.204;44.532;2024-03-08T09:11:10;87776.63;;;10.20;36.15
84696;BME280;74913;40.204;44.532;2024-03-08T09:13:38;87772.06;;;10.28;36.53
84696;BME280;74913;40.204;44.532;2024-03-08T09:16:03;87774.66;;;10.34;35.35
84696;BME280;74913;40.204;44.532;2024-03-08T09:18:32;87767.13;;;10.32;35.60
84696;BME280;74913;40.204;44.532;2024-03-08T09:20:58;87767.13;;;10.32;34.75
84696;BME280;74913;40.204;44.532;2024-03-08T09:23:25;87766.88;;;10.30;34.97
84696;BME280;74913;40.204;44.532;2024-03-08T09:25:56;87762.78;;;10.29;33.68
84696;BME280;74913;40.204;44.532;2024-03-08T09:28:23;87760.28;;;10.31;34.10
84696;BME280;74913;40.204;44.532;2024-03-08T09:30:49;87752.50;;;10.41;34.26
84696;BME280;74913;40.204;44.532;2024-03-08T09:33:14;87750.09;;;10.50;34.26
84696;BME280;74913;40.204;44.532;2024-03-08T09:35:45;87750.28;;;10.52;34.21
84696;BME280;74913;40.204;44.532;2024-03-08T09:38:12;87729.22;;;10.43;33.59
84696;BME280;74913;40.204;44.532;2024-03-08T09:40:38;87747.59;;;10.52;32.08
84696;BME280;74913;40.204;44.532;2024-03-08T09:43:06;87746.97;;;10.59;34.31
84696;BME280;74913;40.204;44.532;2024-03-08T09:45:36;87739.59;;;10.60;33.09
84696;BME280;74913;40.204;44.532;2024-03-08T09:48:05;87738.06;;;10.64;34.16
84696;BME280;74913;40.204;44.532;2024-03-08T09:50:32;87741.09;;;10.81;33.66
84696;BME280;74913;40.204;44.532;2024-03-08T09:52:58;87740.25;;;10.86;32.80
84696;BME280;74913;40.204;44.532;2024-03-08T09:55:25;87738.59;;;10.83;32.55
84696;BME280;74913;40.204;44.532;2024-03-08T09:57:51;87729.88;;;10.90;32.86
84696;BME280;74913;40.204;44.532;2024-03-08T10:00:37;87718.66;;;11.00;32.93
84696;BME280;74913;40.204;44.532;2024-03-08T10:03:03;87722.31;;;11.10;33.24
84696;BME280;74913;40.204;44.532;2024-03-08T10:05:30;87730.31;;;11.23;33.42
84696;BME280;74913;40.204;44.532;2024-03-08T10:07:58;87719.66;;;11.38;32.35
84696;BME280;74913;40.204;44.532;2024-03-08T10:10:23;87717.69;;;11.38;29.54
84696;BME280;74913;40.204;44.532;2024-03-08T10:12:49;87717.56;;;11.44;31.15
84696;BME280;74913;40.204;44.532;2024-03-08T10:15:16;87707.44;;;11.37;30.84
84696;BME280;74913;40.204;44.532;2024-03-08T10:17:45;87708.50;;;11.34;30.67
84696;BME280;74913;40.204;44.532;2024-03-08T10:20:18;87707.78;;;11.33;30.02
84696;BME280;74913;40.204;44.532;2024-03-08T10:22:44;87710.34;;;11.39;31.01
84696;BME280;74913;40.204;44.532;2024-03-08T10:25:13;87713.63;;;11.52;30.60
84696;BME280;74913;40.204;44.532;2024-03-08T10:27:39;87710.28;;;11.59;31.06
84696;BME280;74913;40.204;44.532;2024-03-08T10:30:10;87703.56;;;11.74;30.60
84696;BME280;74913;40.204;44.532;2024-03-08T10:32:37;87696.97;;;11.82;30.95
84696;BME280;74913;40.204;44.532;2024-03-08T10:35:03;87668.41;;;11.79;31.12
84696;BME280;74913;40.204;44.532;2024-03-08T10:37:29;87704.94;;;11.95;30.88
84696;BME280;74913;40.204;44.532;2024-03-08T10:40:03;87670.03;;;11.82;29.38
84696;BME280;74913;40.204;44.532;2024-03-08T10:42:40;87667.00;;;11.93;29.89
84696;BME280;74913;40.204;44.532;2024-03-08T10:45:38;87705.75;;;12.18;29.36
84696;BME280;74913;40.204;44.532;2024-03-08T10:48:29;87695.34;;;12.22;29.66
84696;BME280;74913;40.204;44.532;2024-03-08T10:51:02;87683.31;;;12.23;29.29
84696;BME280;74913;40.204;44.532;2024-03-08T10:53:29;87696.09;;;12.31;30.27
84696;BME280;74913;40.204;44.532;2024-03-08T10:55:57;87696.31;;;12.40;30.26
84696;BME280;74913;40.204;44.532;2024-03-08T10:58:24;87645.00;;;12.17;29.18
84696;BME280;74913;40.204;44.532;2024-03-08T11:00:54;87690.25;;;12.55;30.37
84696;BME280;74913;40.204;44.532;2024-03-08T11:03:47;87692.75;;;12.60;28.55
84696;BME280;74913;40.204;44.532;2024-03-08T11:08:48;87691.72;;;12.71;30.01
84696;BME280;74913;40.204;44.532;2024-03-08T11:11:27;87684.91;;;12.70;28.32
84696;BME280;74913;40.204;44.532;2024-03-08T11:13:55;87681.81;;;12.73;29.96
84696;BME280;74913;40.204;44.532;2024-03-08T11:21:37;87679.50;;;13.00;29.66
84696;BME280;74913;40.204;44.532;2024-03-08T11:24:13;87686.19;;;12.99;27.89
84696;BME280;74913;40.204;44.532;2024-03-08T11:26:42;87676.28;;;12.94;29.30
84696;BME280;74913;40.204;44.532;2024-03-08T11:32:23;87686.00;;;12.82;26.13
84696;BME280;74913;40.204;44.532;2024-03-08T11:34:53;87684.38;;;12.94;28.28
84696;BME280;74913;40.204;44.532;2024-03-08T11:37:20;87680.97;;;13.01;28.16
84696;BME280;74913;40.204;44.532;2024-03-08T11:39:53;87678.25;;;12.86;27.64
84696;BME280;74913;40.204;44.532;2024-03-08T11:42:25;87685.06;;;12.72;28.50
84696;BME280;74913;40.204;44.532;2024-03-08T11:44:53;87678.19;;;12.56;28.65
84696;BME280;74913;40.204;44.532;2024-03-08T11:47:20;87679.03;;;12.36;27.11
84696;BME280;74913;40.204;44.532;2024-03-08T11:49:46;87679.19;;;12.30;28.89
84696;BME280;74913;40.204;44.532;2024-03-08T11:52:14;87684.19;;;12.18;28.76
84696;BME280;74913;40.204;44.532;2024-03-08T11:54:51;87653.00;;;11.87;27.95
84696;BME280;74913;40.204;44.532;2024-03-08T11:57:21;87683.06;;;12.06;28.13
84696;BME280;74913;40.204;44.532;2024-03-08T11:59:51;87674.97;;;12.06;28.29
84696;BME280;74913;40.204;44.532;2024-03-08T12:02:17;87682.00;;;12.09;29.16
84696;BME280;74913;40.204;44.532;2024-03-08T12:04:45;87686.31;;;12.12;29.26
84696;BME280;74913;40.204;44.532;2024-03-08T12:07:13;87679.16;;;12.22;28.56
84696;BME280;74913;40.204;44.532;2024-03-08T12:09:42;87678.84;;;12.34;27.47
84696;BME280;74913;40.204;44.532;2024-03-08T12:12:12;87673.47;;;12.41;28.69
84696;BME280;74913;40.204;44.532;2024-03-08T12:14:38;87665.59;;;12.51;28.29
84696;BME280;74913;40.204;44.532;2024-03-08T12:17:04;87670.28;;;12.58;27.91
84696;BME280;74913;40.204;44.532;2024-03-08T12:19:31;87666.34;;;12.66;28.05
84696;BME280;74913;40.204;44.532;2024-03-08T12:22:07;87658.56;;;12.48;26.67
84696;BME280;74913;40.204;44.532;2024-03-08T12:24:35;87677.47;;;12.63;27.87
84696;BME280;74913;40.204;44.532;2024-03-08T12:27:17;87680.72;;;12.54;26.53
84696;BME280;74913;40.204;44.532;2024-03-08T12:29:43;87675.13;;;12.52;28.47
84696;BME280;74913;40.204;44.532;2024-03-08T12:32:19;87677.81;;;12.44;27.26
84696;BME280;74913;40.204;44.532;2024-03-08T12:34:52;87656.50;;;12.18;27.21
84696;BME280;74913;40.204;44.532;2024-03-08T12:37:18;87672.91;;;12.35;28.77
84696;BME280;74913;40.204;44.532;2024-03-08T12:39:44;87668.41;;;12.30;28.53
84696;BME280;74913;40.204;44.532;2024-03-08T12:42:10;87664.75;;;12.12;27.78
84696;BME280;74913;40.204;44.532;2024-03-08T12:44:35;87683.81;;;12.14;28.10
84696;BME280;74913;40.204;44.532;2024-03-08T12:47:06;87678.44;;;12.14;28.11
84696;BME280;74913;40.204;44.532;2024-03-08T12:49:33;87676.25;;;12.13;27.90
84696;BME280;74913;40.204;44.532;2024-03-08T12:51:59;87672.66;;;12.10;28.64
84696;BME280;74913;40.204;44.532;2024-03-08T12:54:26;87679.84;;;12.08;27.89
84696;BME280;74913;40.204;44.532;2024-03-08T12:56:51;87670.47;;;12.01;28.70
84696;BME280;74913;40.204;44.532;2024-03-08T12:59:20;87658.03;;;11.91;28.62
84696;BME280;74913;40.204;44.532;2024-03-08T13:01:47;87676.22;;;12.05;27.70
84696;BME280;74913;40.204;44.532;2024-03-08T13:04:12;87674.09;;;12.11;28.47
84696;BME280;74913;40.204;44.532;2024-03-08T13:06:38;87667.47;;;12.20;28.33
84696;BME280;74913;40.204;44.532;2024-03-08T13:09:04;87659.78;;;12.32;28.22